CheckWX is a tool to help pilots better visualize weather data.  It is not intended as a substitute for an official pre-flight weather briefing.

04:39:40 UTC

EGSS TAF
London Stansted Airport
London, United Kingdom
TAF EGSS 222252Z 2300/2406 22004KT 9999 FEW035 TEMPO 2300/2309 8000 PROB30 TEMPO 2302/2308 3000 BR BKN003 BECMG 2323/2402 8000 PROB40 2402/2406 3000 BR

Aug-23@
00:00 UTC

Aug-23 @ 00:00 UTC

Aug-23@
23:00 UTC

Aug-23 @ 23:00 UTC

TAF EGSS 222252Z 2300/2406 22004KT 9999 FEW035
Wind
  • 220° at 4 KTS
Cloud Levels
  • Few at 3,500' AGL

Aug-23@
00:00 UTC

Aug-23 @ 00:00 UTC

Aug-23@
09:00 UTC

Aug-23 @ 09:00 UTC

TEMPO 2300/2309 8000

Temporary

Temporary Changes expected for less than half the time period

Aug-23@
02:00 UTC

Aug-23 @ 02:00 UTC

Aug-23@
08:00 UTC

Aug-23 @ 08:00 UTC

PROB30 TEMPO 2302/2308 3000 BR BKN003

Temporary - 30% Likelihood

Temporary - 30% Likelihood during this time.

Conditions
Mist
Cloud Levels
  • Broken at 300' AGL

Aug-23@
23:00 UTC

Aug-23 @ 23:00 UTC

Aug-24@
06:00 UTC

Aug-24 @ 06:00 UTC

BECMG 2323/2402 8000

Becoming

Becoming Conditions expected by Sat, Aug 24, 2019 @ 02:00 UTC

Wind
  • 220° at 4 KTS
Cloud Levels
  • Few at 3,500' AGL

Aug-24@
02:00 UTC

Aug-24 @ 02:00 UTC

Aug-24@
06:00 UTC

Aug-24 @ 06:00 UTC

PROB40 2402/2406 3000 BR

Probable - 40% Likelihood

Probable - 40% Likelihood during this time.

Conditions
Mist